createdAt,value
2023-05-01T00:03:02.255Z,76.08
2023-05-01T00:03:08.365Z,76.25
2023-05-01T00:04:08.427Z,76.25
2023-05-01T00:05:08.241Z,76.37
2023-05-01T00:06:08.282Z,76.27
2023-05-01T00:07:29.197Z,76.25
2023-05-01T00:08:08.189Z,76.27
2023-05-01T00:09:08.129Z,76.21
2023-05-01T00:10:08.128Z,76.47
2023-05-01T00:11:08.104Z,76.34
2023-05-01T00:12:08.091Z,76.26
2023-05-01T00:13:08.105Z,76.10
2023-05-01T00:14:08.067Z,75.88
2023-05-01T00:15:08.053Z,75.85
2023-05-01T00:16:08.078Z,75.94
2023-05-01T00:17:08.034Z,75.92
2023-05-01T00:18:08.082Z,75.83
2023-05-01T00:19:07.990Z,75.93
2023-05-01T00:20:07.989Z,76.03
2023-05-01T00:21:08.004Z,76.06
2023-05-01T00:22:07.961Z,75.96
2023-05-01T00:23:07.971Z,76.14
2023-05-01T00:24:07.963Z,76.16
2023-05-01T00:25:07.937Z,76.13
2023-05-01T00:26:07.935Z,75.87
2023-05-01T00:27:07.940Z,75.98
2023-05-01T00:28:07.888Z,75.77
2023-05-01T00:29:07.900Z,75.92
2023-05-01T00:30:07.880Z,76.07
2023-05-01T00:31:07.854Z,76.01
2023-05-01T00:32:07.906Z,75.95
2023-05-01T00:33:07.856Z,75.95
2023-05-01T00:34:07.813Z,75.87
2023-05-01T00:35:07.805Z,76.20
2023-05-01T00:36:07.851Z,76.09
2023-05-01T00:37:07.777Z,76.23
2023-05-01T00:38:07.758Z,76.37
2023-05-01T00:39:07.751Z,76.18
2023-05-01T00:40:07.751Z,76.05
2023-05-01T00:41:07.723Z,76.10
2023-05-01T00:42:07.736Z,76.17
2023-05-01T00:43:07.691Z,76.23
2023-05-01T00:44:07.686Z,76.44
2023-05-01T00:45:07.668Z,76.59
2023-05-01T00:46:07.678Z,76.37
2023-05-01T00:47:07.663Z,76.59
2023-05-01T00:48:07.701Z,76.67
2023-05-01T00:49:07.628Z,77.01
2023-05-01T00:50:07.615Z,77.44
2023-05-01T00:51:07.595Z,77.49
2023-05-01T00:52:07.575Z,77.49
2023-05-01T00:53:07.575Z,77.54
2023-05-01T00:54:07.596Z,77.53
2023-05-01T00:55:07.572Z,77.78
2023-05-01T00:56:07.538Z,77.54
2023-05-01T00:57:07.546Z,77.65
2023-05-01T00:58:07.497Z,77.84
2023-05-01T00:59:07.479Z,77.74
2023-05-01T01:01:07.402Z,76.93
2023-05-01T01:02:08.338Z,77.73
2023-05-01T01:03:08.408Z,78.02
2023-05-01T01:04:08.340Z,78.07
2023-05-01T01:05:08.389Z,77.97
2023-05-01T01:06:08.375Z,77.98
2023-05-01T01:07:08.284Z,78.01
2023-05-01T01:08:08.270Z,78.18
2023-05-01T01:09:08.265Z,78.15
2023-05-01T01:10:08.245Z,78.12
2023-05-01T01:11:08.259Z,78.47
2023-05-01T01:12:08.221Z,78.54
2023-05-01T01:13:08.201Z,78.52
2023-05-01T01:14:08.190Z,78.42
2023-05-01T01:15:08.179Z,78.56
2023-05-01T01:16:08.207Z,78.49
2023-05-01T01:17:08.295Z,78.87
2023-05-01T01:18:08.189Z,78.72
2023-05-01T01:19:08.136Z,78.87
2023-05-01T01:20:08.112Z,78.86
2023-05-01T01:21:08.101Z,78.77
2023-05-01T01:22:08.103Z,78.72
2023-05-01T01:23:08.073Z,78.84
2023-05-01T01:24:08.061Z,78.72
2023-05-01T01:25:08.039Z,78.81
2023-05-01T01:26:08.034Z,78.75
2023-05-01T01:27:08.018Z,78.72
2023-05-01T01:28:08.067Z,78.80
2023-05-01T01:29:08.003Z,78.82
2023-05-01T01:30:07.996Z,78.73
2023-05-01T01:31:08.055Z,79.08
2023-05-01T01:32:07.954Z,78.93
2023-05-01T01:33:08.572Z,78.79
2023-05-01T01:34:07.957Z,78.91
2023-05-01T01:35:07.929Z,78.99
2023-05-01T01:36:07.948Z,79.15
2023-05-01T01:37:07.918Z,79.18
2023-05-01T01:38:07.938Z,79.39
2023-05-01T01:39:07.866Z,79.42
2023-05-01T01:40:07.877Z,80.03
2023-05-01T01:41:07.835Z,80.33
2023-05-01T01:42:07.826Z,79.92
2023-05-01T01:43:07.862Z,80.47
2023-05-01T01:44:07.804Z,81.21
2023-05-01T01:45:07.781Z,81.24
2023-05-01T01:46:07.864Z,82.24
2023-05-01T01:47:07.776Z,82.37
2023-05-01T01:48:07.886Z,83.41
2023-05-01T01:49:07.757Z,83.28
2023-05-01T01:50:07.711Z,84.10
2023-05-01T01:51:07.708Z,84.09
2023-05-01T01:52:07.709Z,84.45
2023-05-01T01:53:07.688Z,84.85
2023-05-01T01:54:07.665Z,85.51
2023-05-01T01:55:07.703Z,86.05
2023-05-01T01:56:07.647Z,84.79
2023-05-01T01:57:07.632Z,85.21
2023-05-01T01:58:07.642Z,85.50
2023-05-01T01:59:07.618Z,85.18
2023-05-01T02:00:07.584Z,85.54
2023-05-01T02:01:07.614Z,85.86
2023-05-01T02:02:07.588Z,85.71
2023-05-01T02:03:07.674Z,85.86
2023-05-01T02:04:07.572Z,85.37
2023-05-01T02:05:07.547Z,85.57
2023-05-01T02:06:07.675Z,85.62
2023-05-01T02:07:07.500Z,85.13
2023-05-01T02:08:07.505Z,85.98
2023-05-01T02:09:07.479Z,85.44
2023-05-01T02:10:07.500Z,86.29
2023-05-01T02:11:07.465Z,86.82
2023-05-01T02:12:07.466Z,86.47
2023-05-01T02:13:07.426Z,87.04
2023-05-01T02:14:07.424Z,87.54
2023-05-01T02:15:07.482Z,86.88
2023-05-01T02:16:07.440Z,87.44
2023-05-01T02:17:07.416Z,87.64
2023-05-01T02:18:07.428Z,87.66
2023-05-01T02:19:07.347Z,87.88
2023-05-01T02:20:07.344Z,88.12
2023-05-01T02:21:07.322Z,88.30
2023-05-01T02:22:07.377Z,88.96
2023-05-01T02:23:07.319Z,89.00
2023-05-01T02:24:07.334Z,89.09
2023-05-01T02:25:07.278Z,89.48
2023-05-01T02:26:07.279Z,89.81
2023-05-01T02:27:07.275Z,89.79
2023-05-01T02:28:07.260Z,89.99
2023-05-01T02:29:07.224Z,90.20
2023-05-01T02:30:07.217Z,90.47
2023-05-01T02:31:07.240Z,90.38
2023-05-01T02:32:07.319Z,90.34
2023-05-01T02:33:07.225Z,90.66
2023-05-01T02:34:07.180Z,90.64
2023-05-01T02:35:07.158Z,90.08
2023-05-01T02:36:07.137Z,90.03
2023-05-01T02:37:07.138Z,90.56
2023-05-01T02:38:07.128Z,90.32
2023-05-01T02:39:07.112Z,90.56
2023-05-01T02:40:07.086Z,90.88
2023-05-01T02:41:07.075Z,90.72
2023-05-01T02:42:07.066Z,90.81
2023-05-01T02:43:07.062Z,90.55
2023-05-01T02:44:07.048Z,90.54
2023-05-01T02:45:07.015Z,90.59
2023-05-01T02:46:07.088Z,91.18
2023-05-01T02:47:07.114Z,90.34
2023-05-01T02:48:07.066Z,90.61
2023-05-01T02:49:06.987Z,91.33
2023-05-01T02:50:06.963Z,91.87
2023-05-01T02:51:06.940Z,92.42
2023-05-01T02:52:06.940Z,92.65
2023-05-01T02:53:06.946Z,92.52
2023-05-01T02:54:06.916Z,92.69
2023-05-01T02:55:06.964Z,92.82
2023-05-01T02:56:06.877Z,92.92
2023-05-01T02:57:06.884Z,92.88
2023-05-01T02:58:06.875Z,92.77
2023-05-01T02:59:06.867Z,92.86
2023-05-01T03:00:06.847Z,92.68
2023-05-01T03:01:06.892Z,92.78
2023-05-01T03:02:06.823Z,92.49
2023-05-01T03:03:06.924Z,92.67
2023-05-01T03:04:06.838Z,93.09
2023-05-01T03:05:06.772Z,93.12
2023-05-01T03:06:06.787Z,93.16
2023-05-01T03:07:06.769Z,93.13
2023-05-01T03:08:06.762Z,93.10
2023-05-01T03:09:06.744Z,93.03
2023-05-01T03:10:06.718Z,93.02
2023-05-01T03:11:06.679Z,93.03
2023-05-01T03:12:06.684Z,93.16
2023-05-01T03:13:06.691Z,92.76
2023-05-01T03:14:06.712Z,92.51
2023-05-01T03:15:06.643Z,92.86
2023-05-01T03:16:06.663Z,93.14
2023-05-01T03:17:06.656Z,93.30
2023-05-01T03:18:06.685Z,92.78
2023-05-01T03:19:06.583Z,92.87
2023-05-01T03:20:06.599Z,93.16
2023-05-01T03:21:06.553Z,93.46
2023-05-01T03:22:06.536Z,93.39
2023-05-01T03:23:06.541Z,93.21
2023-05-01T03:24:06.522Z,93.12
2023-05-01T03:25:06.516Z,93.01
2023-05-01T03:26:06.507Z,93.26
2023-05-01T03:27:06.477Z,93.52
2023-05-01T03:28:06.493Z,93.07
2023-05-01T03:29:06.466Z,92.98
2023-05-01T03:30:06.442Z,92.98
2023-05-01T03:31:06.438Z,93.77
2023-05-01T03:32:06.477Z,93.70
2023-05-01T03:33:06.400Z,93.76
2023-05-01T03:34:06.401Z,93.76
2023-05-01T03:35:06.418Z,93.89
2023-05-01T03:36:06.357Z,93.76
2023-05-01T03:37:06.337Z,93.53
2023-05-01T03:38:06.352Z,93.27
2023-05-01T03:39:06.380Z,93.88
2023-05-01T03:40:06.308Z,94.12
2023-05-01T03:41:06.292Z,94.26
2023-05-01T03:42:06.300Z,94.32
2023-05-01T03:43:06.298Z,94.40
2023-05-01T03:44:06.293Z,94.55
2023-05-01T03:45:06.237Z,94.58
2023-05-01T03:46:06.282Z,94.61
2023-05-01T03:47:06.213Z,94.63
2023-05-01T03:48:06.317Z,94.75
2023-05-01T03:49:06.248Z,94.77
2023-05-01T03:50:06.186Z,94.84
2023-05-01T03:51:06.162Z,94.85
2023-05-01T03:52:06.151Z,94.72
2023-05-01T03:53:06.153Z,94.77
2023-05-01T03:54:06.161Z,95.01
2023-05-01T03:55:06.121Z,94.55
2023-05-01T03:56:06.094Z,94.71
2023-05-01T03:57:06.087Z,94.72
2023-05-01T03:58:06.112Z,95.15
2023-05-01T03:59:06.083Z,95.25
2023-05-01T04:00:06.044Z,95.41
2023-05-01T04:01:06.040Z,95.36
2023-05-01T04:02:06.050Z,95.46
2023-05-01T04:03:06.302Z,95.43
2023-05-01T04:04:06.104Z,95.26
2023-05-01T04:05:06.031Z,94.98
2023-05-01T04:06:06.006Z,95.36
2023-05-01T04:07:05.957Z,95.53
2023-05-01T04:08:05.970Z,95.76
2023-05-01T04:09:05.944Z,95.99
2023-05-01T04:10:05.930Z,95.93
2023-05-01T04:11:05.928Z,95.90
2023-05-01T04:12:05.890Z,96.04
2023-05-01T04:13:05.871Z,96.19
2023-05-01T04:14:05.883Z,96.31
2023-05-01T04:15:05.893Z,96.29
2023-05-01T04:16:05.912Z,96.45
2023-05-01T04:17:05.898Z,96.43
2023-05-01T04:18:05.895Z,96.40
2023-05-01T04:19:05.798Z,96.54
2023-05-01T04:20:05.803Z,96.69
2023-05-01T04:21:05.810Z,96.66
2023-05-01T04:22:05.861Z,96.73
2023-05-01T04:23:05.805Z,96.88
2023-05-01T04:24:05.737Z,97.02
2023-05-01T04:25:05.732Z,97.11
2023-05-01T04:26:05.730Z,97.11
2023-05-01T04:27:05.712Z,97.12
2023-05-01T04:28:05.729Z,97.33
2023-05-01T04:29:05.695Z,97.37
2023-05-01T04:30:05.656Z,97.29
2023-05-01T04:31:05.667Z,97.07
2023-05-01T04:32:05.748Z,96.95
2023-05-01T04:33:05.695Z,97.01
2023-05-01T04:34:05.608Z,97.25
2023-05-01T04:35:05.620Z,97.28
2023-05-01T04:36:05.580Z,97.23
2023-05-01T04:37:05.573Z,97.17
2023-05-01T04:38:05.552Z,97.00
2023-05-01T04:39:05.540Z,96.83
2023-05-01T04:40:05.535Z,96.85
2023-05-01T04:41:05.536Z,96.79
2023-05-01T04:42:05.503Z,96.89
2023-05-01T04:43:05.495Z,97.07
2023-05-01T04:44:05.495Z,97.15
2023-05-01T04:45:05.459Z,97.23
2023-05-01T04:46:05.524Z,97.28
2023-05-01T04:47:05.608Z,97.24
2023-05-01T04:48:05.464Z,97.20
2023-05-01T04:49:05.413Z,97.29
2023-05-01T04:50:05.399Z,97.27
2023-05-01T04:51:05.427Z,97.28
2023-05-01T04:52:05.392Z,97.32
2023-05-01T04:53:05.377Z,97.29
2023-05-01T04:54:05.347Z,97.26
2023-05-01T04:55:05.342Z,97.19
2023-05-01T04:56:05.345Z,97.21
2023-05-01T04:57:05.318Z,97.07
2023-05-01T04:58:05.356Z,96.84
2023-05-01T04:59:05.292Z,96.58
2023-05-01T05:00:05.295Z,96.30
2023-05-01T05:01:05.297Z,95.54
2023-05-01T05:02:05.313Z,95.39
2023-05-01T05:03:05.393Z,95.58
2023-05-01T05:04:05.318Z,95.75
2023-05-01T05:05:05.214Z,95.66
2023-05-01T05:06:05.226Z,95.80
2023-05-01T05:07:05.198Z,95.86
2023-05-01T05:08:05.171Z,96.05
2023-05-01T05:09:05.187Z,96.18
2023-05-01T05:10:05.157Z,96.25
2023-05-01T05:11:05.129Z,96.39
2023-05-01T05:12:05.115Z,96.61
2023-05-01T05:13:05.124Z,96.62
2023-05-01T05:14:05.150Z,96.71
2023-05-01T05:15:05.103Z,96.60
2023-05-01T05:16:05.148Z,96.49
2023-05-01T05:17:05.065Z,96.24
2023-05-01T05:18:05.087Z,96.37
2023-05-01T05:19:05.038Z,96.46
2023-05-01T05:20:05.037Z,96.31
2023-05-01T05:21:05.084Z,96.43
2023-05-01T05:22:04.992Z,96.57
2023-05-01T05:23:04.975Z,96.69
2023-05-01T05:24:04.957Z,96.61
2023-05-01T05:25:04.973Z,96.49
2023-05-01T05:26:04.943Z,96.03
2023-05-01T05:27:04.945Z,96.14
2023-05-01T05:28:04.922Z,96.18
2023-05-01T05:29:04.933Z,96.07
2023-05-01T05:30:04.899Z,95.84
2023-05-01T05:31:04.881Z,95.53
2023-05-01T05:32:04.974Z,95.52
2023-05-01T05:33:04.948Z,95.65
2023-05-01T05:34:04.830Z,95.52
2023-05-01T05:35:04.832Z,95.63
2023-05-01T05:36:04.835Z,95.66
2023-05-01T05:37:04.848Z,95.73
2023-05-01T05:38:04.831Z,95.74
2023-05-01T05:39:04.784Z,95.68
2023-05-01T05:40:04.810Z,95.46
2023-05-01T05:41:04.808Z,95.56
2023-05-01T05:42:04.790Z,95.48
2023-05-01T05:43:04.733Z,95.43
2023-05-01T05:44:04.744Z,95.23
2023-05-01T05:45:04.728Z,95.26
2023-05-01T05:46:04.758Z,95.41
2023-05-01T05:47:04.766Z,95.53
2023-05-01T05:48:04.696Z,95.65
2023-05-01T05:49:04.673Z,95.75
2023-05-01T05:50:04.708Z,95.58
2023-05-01T05:51:04.638Z,95.58
2023-05-01T05:52:04.616Z,95.47
2023-05-01T05:53:04.602Z,95.66
2023-05-01T05:54:04.579Z,95.78
2023-05-01T05:55:04.567Z,95.89
2023-05-01T05:56:04.574Z,96.01
2023-05-01T05:57:04.544Z,96.10
2023-05-01T05:58:04.557Z,96.18
2023-05-01T05:59:04.578Z,95.82
2023-05-01T06:00:04.496Z,96.03
2023-05-01T06:01:04.544Z,96.08
2023-05-01T06:02:04.564Z,96.10
2023-05-01T06:03:04.539Z,96.16
2023-05-01T06:04:04.468Z,95.96
2023-05-01T06:05:04.465Z,95.96
2023-05-01T06:06:04.559Z,96.21
2023-05-01T06:07:04.492Z,96.43
2023-05-01T06:08:04.428Z,96.21
2023-05-01T06:09:04.408Z,95.97
2023-05-01T06:10:04.398Z,95.84
2023-05-01T06:11:04.362Z,95.78
2023-05-01T06:12:04.346Z,95.49
2023-05-01T06:13:13.304Z,95.10
2023-05-01T06:14:04.328Z,95.27
2023-05-01T06:15:04.319Z,95.25
2023-05-01T06:16:04.364Z,95.51
2023-05-01T06:17:04.292Z,95.71
2023-05-01T06:18:04.293Z,95.70
2023-05-01T06:19:04.278Z,95.83
2023-05-01T06:20:04.266Z,95.71
2023-05-01T06:21:04.228Z,95.11
2023-05-01T06:22:04.223Z,94.64
2023-05-01T06:23:04.207Z,94.67
2023-05-01T06:24:04.212Z,94.59
2023-05-01T06:25:04.186Z,94.43
2023-05-01T06:26:04.179Z,94.41
2023-05-01T06:27:04.176Z,94.41
2023-05-01T06:28:04.177Z,94.69
2023-05-01T06:29:04.178Z,94.84
2023-05-01T06:30:04.122Z,94.97
2023-05-01T06:31:04.131Z,94.94
2023-05-01T06:32:04.184Z,94.96
2023-05-01T06:33:04.147Z,94.90
2023-05-01T06:34:04.069Z,95.29
2023-05-01T06:35:04.068Z,95.69
2023-05-01T06:36:04.060Z,95.53
2023-05-01T06:37:04.063Z,95.48
2023-05-01T06:38:04.016Z,95.79
2023-05-01T06:39:04.069Z,95.77
2023-05-01T06:40:04.007Z,96.06
2023-05-01T06:41:03.995Z,95.66
2023-05-01T06:42:03.971Z,95.39
2023-05-01T06:43:03.949Z,95.69
2023-05-01T06:44:03.957Z,95.83
2023-05-01T06:45:03.928Z,96.02
2023-05-01T06:46:03.943Z,95.95
2023-05-01T06:47:03.952Z,95.40
2023-05-01T06:48:03.936Z,95.63
2023-05-01T06:49:03.879Z,95.67
2023-05-01T06:50:05.547Z,95.74
2023-05-01T06:51:03.858Z,95.74
2023-05-01T06:52:03.843Z,95.23
2023-05-01T06:53:03.814Z,95.35
2023-05-01T06:54:03.853Z,95.43
2023-05-01T06:55:03.894Z,95.46
2023-05-01T06:56:03.785Z,95.34
2023-05-01T06:57:03.776Z,95.74
2023-05-01T06:58:15.897Z,96.00
2023-05-01T06:59:03.787Z,96.01
2023-05-01T07:00:03.722Z,95.68
2023-05-01T07:01:03.771Z,95.53
2023-05-01T07:02:03.770Z,95.78
2023-05-01T07:03:03.718Z,95.54
2023-05-01T07:04:03.692Z,95.64
2023-05-01T07:05:03.693Z,95.68
2023-05-01T07:06:03.732Z,95.73
2023-05-01T07:07:03.684Z,95.88
2023-05-01T07:08:03.642Z,95.84
2023-05-01T07:09:03.639Z,95.44
2023-05-01T07:10:03.614Z,95.16
2023-05-01T07:11:03.588Z,95.50
2023-05-01T07:12:03.578Z,95.38
2023-05-01T07:13:03.618Z,95.46
2023-05-01T07:14:03.551Z,95.12
2023-05-01T07:15:03.570Z,95.19
2023-05-01T07:16:03.536Z,95.51
2023-05-01T07:17:03.558Z,95.15
2023-05-01T07:18:03.601Z,95.69
2023-05-01T07:19:03.528Z,95.91
2023-05-01T07:20:03.467Z,96.15
2023-05-01T07:21:03.476Z,96.05
2023-05-01T07:22:03.456Z,95.79
2023-05-01T07:23:04.714Z,95.17
2023-05-01T07:24:03.444Z,94.89
2023-05-01T07:25:03.442Z,94.92
2023-05-01T07:26:03.418Z,95.02
2023-05-01T07:27:03.404Z,94.78
2023-05-01T07:28:03.376Z,94.31
2023-05-01T07:29:03.381Z,93.87
2023-05-01T07:30:03.360Z,93.71
2023-05-01T07:31:03.361Z,93.18
2023-05-01T07:32:03.367Z,93.37
2023-05-01T07:33:03.372Z,93.87
2023-05-01T07:34:03.334Z,93.66
2023-05-01T07:35:03.281Z,93.64
2023-05-01T07:36:03.275Z,93.27
2023-05-01T07:37:03.277Z,93.46
2023-05-01T07:38:03.252Z,93.43
2023-05-01T07:39:03.246Z,93.56
2023-05-01T07:40:03.237Z,93.44
2023-05-01T07:41:03.234Z,91.84
2023-05-01T07:42:03.201Z,92.03
2023-05-01T07:43:03.194Z,92.52
2023-05-01T07:44:03.181Z,92.83
2023-05-01T07:45:03.156Z,92.84
2023-05-01T07:46:03.199Z,92.39
2023-05-01T07:47:03.152Z,92.11
2023-05-01T07:48:03.201Z,92.18
2023-05-01T07:49:03.097Z,91.59
2023-05-01T07:50:03.121Z,92.17
2023-05-01T07:51:03.067Z,92.47
2023-05-01T07:52:03.070Z,92.29
2023-05-01T07:53:03.091Z,92.34
2023-05-01T07:54:03.063Z,92.21
2023-05-01T07:55:03.032Z,91.75
2023-05-01T07:56:03.034Z,91.88
2023-05-01T07:57:02.993Z,91.71
2023-05-01T07:58:02.993Z,90.71
2023-05-01T07:59:03.033Z,91.65
2023-05-01T08:00:03.021Z,92.08
2023-05-01T08:01:02.940Z,92.08
2023-05-01T08:02:02.936Z,91.99
2023-05-01T08:03:03.012Z,91.14
2023-05-01T08:04:03.071Z,90.59
2023-05-01T08:05:03.056Z,90.46
2023-05-01T08:06:02.991Z,90.90
2023-05-01T08:07:02.900Z,90.99
2023-05-01T08:08:02.908Z,90.03
2023-05-01T08:09:02.916Z,90.08
2023-05-01T08:10:03.131Z,88.91
2023-05-01T08:11:02.858Z,89.86
2023-05-01T08:12:02.796Z,88.76
2023-05-01T08:13:02.809Z,88.06
2023-05-01T08:14:02.799Z,88.17
2023-05-01T08:15:02.812Z,89.14
2023-05-01T08:16:02.823Z,89.48
2023-05-01T08:17:02.788Z,88.84
2023-05-01T08:18:02.762Z,88.04
2023-05-01T08:19:02.748Z,88.44
2023-05-01T08:20:02.754Z,88.89
2023-05-01T08:21:02.694Z,89.44
2023-05-01T08:22:02.673Z,89.49
2023-05-01T08:23:02.713Z,88.83
2023-05-01T08:24:02.691Z,88.52
2023-05-01T08:25:02.685Z,89.06
2023-05-01T08:26:02.670Z,89.50
2023-05-01T08:27:02.628Z,88.27
2023-05-01T08:28:02.601Z,88.74
2023-05-01T08:29:02.682Z,88.33
2023-05-01T08:30:02.577Z,88.38
2023-05-01T08:31:02.614Z,87.89
2023-05-01T08:32:02.603Z,88.72
2023-05-01T08:33:02.575Z,88.04
2023-05-01T08:34:02.529Z,86.86
2023-05-01T08:35:02.531Z,86.82
2023-05-01T08:36:02.510Z,86.80
2023-05-01T08:37:02.483Z,85.75
2023-05-01T08:38:02.493Z,86.01
2023-05-01T08:39:02.546Z,88.04
2023-05-01T08:40:02.455Z,88.72
2023-05-01T08:41:02.497Z,87.72
2023-05-01T08:42:02.438Z,87.14
2023-05-01T08:43:02.506Z,86.28
2023-05-01T08:44:02.398Z,86.82
2023-05-01T08:45:02.384Z,86.48
2023-05-01T08:46:02.383Z,86.97
2023-05-01T08:47:02.448Z,88.17
2023-05-01T08:48:02.395Z,87.72
2023-05-01T08:49:02.325Z,86.88
2023-05-01T08:50:02.341Z,87.36
2023-05-01T08:51:02.327Z,88.55
2023-05-01T08:52:02.301Z,87.91
2023-05-01T08:53:02.294Z,88.47
2023-05-01T08:54:02.274Z,87.92
2023-05-01T08:55:02.286Z,86.81
2023-05-01T08:56:02.242Z,87.89
2023-05-01T08:57:02.231Z,88.82
2023-05-01T08:58:02.207Z,87.70
2023-05-01T08:59:02.229Z,87.04
2023-05-01T09:00:02.243Z,86.35
2023-05-01T09:01:02.187Z,85.69
2023-05-01T09:02:02.276Z,85.10
2023-05-01T09:03:02.328Z,84.46
2023-05-01T09:04:02.318Z,84.05
2023-05-01T09:05:02.126Z,84.07
2023-05-01T09:06:02.146Z,85.11
2023-05-01T09:07:02.144Z,85.05
2023-05-01T09:08:02.121Z,85.01
2023-05-01T09:09:02.088Z,85.39
2023-05-01T09:10:02.138Z,85.62
2023-05-01T09:11:02.069Z,85.46
2023-05-01T09:12:02.060Z,85.63
2023-05-01T09:13:02.066Z,85.39
2023-05-01T09:14:02.049Z,85.15
2023-05-01T09:15:02.090Z,85.20
2023-05-01T09:16:02.071Z,84.71
2023-05-01T09:17:01.981Z,83.95
2023-05-01T09:18:03.811Z,84.43
2023-05-01T09:19:02.030Z,83.80
2023-05-01T09:20:01.958Z,82.97
2023-05-01T09:21:01.981Z,83.18
2023-05-01T09:22:01.953Z,82.09
2023-05-01T09:23:01.945Z,82.97
2023-05-01T09:24:01.937Z,83.80
2023-05-01T09:25:01.874Z,82.91
2023-05-01T09:26:01.885Z,80.90
2023-05-01T09:27:01.890Z,82.59
2023-05-01T09:28:01.971Z,82.04
2023-05-01T09:29:02.894Z,82.85
2023-05-01T09:30:01.919Z,82.25
2023-05-01T09:31:01.797Z,82.07
2023-05-01T09:32:01.939Z,80.48
2023-05-01T09:33:01.913Z,80.45
2023-05-01T09:34:01.748Z,81.06
2023-05-01T09:35:01.752Z,81.91
2023-05-01T09:36:01.765Z,82.21
2023-05-01T09:37:01.730Z,80.70
2023-05-01T09:38:01.729Z,79.60
2023-05-01T09:39:01.726Z,78.32
2023-05-01T09:40:01.701Z,80.56
2023-05-01T09:41:01.677Z,79.68
2023-05-01T09:42:01.715Z,79.33
2023-05-01T09:43:01.650Z,78.16
2023-05-01T09:44:01.699Z,78.42
2023-05-01T09:45:01.638Z,76.90
2023-05-01T09:46:01.681Z,74.88
2023-05-01T09:47:01.586Z,76.17
2023-05-01T09:48:01.693Z,72.56
2023-05-01T09:49:01.600Z,74.92
2023-05-01T09:50:01.604Z,77.01
2023-05-01T09:51:01.586Z,77.28
2023-05-01T09:52:01.552Z,75.96
2023-05-01T09:53:01.544Z,75.56
2023-05-01T09:54:01.516Z,74.55
2023-05-01T09:55:01.508Z,73.25
2023-05-01T09:56:01.540Z,74.88
2023-05-01T09:57:01.520Z,74.36
2023-05-01T09:58:01.475Z,74.57
2023-05-01T09:59:01.469Z,71.69
2023-05-01T10:00:01.461Z,74.30
2023-05-01T10:01:01.519Z,76.69
2023-05-01T10:02:01.530Z,75.65
2023-05-01T10:03:01.518Z,75.10
2023-05-01T10:04:01.453Z,75.62
2023-05-01T10:05:01.438Z,76.06
2023-05-01T10:06:01.474Z,76.66
2023-05-01T10:07:01.574Z,77.31
2023-05-01T10:08:01.357Z,77.68
2023-05-01T10:09:01.346Z,76.37
2023-05-01T10:10:01.921Z,76.29
2023-05-01T10:11:01.343Z,78.04
2023-05-01T10:12:01.288Z,78.04
2023-05-01T10:13:01.290Z,76.78
2023-05-01T10:14:01.271Z,78.54
2023-05-01T10:15:07.891Z,78.29
2023-05-01T10:16:01.254Z,77.20
2023-05-01T10:17:01.338Z,76.91
2023-05-01T10:18:01.339Z,77.40
2023-05-01T10:19:02.346Z,76.73
2023-05-01T10:20:02.279Z,77.26
2023-05-01T10:25:56.171Z,76.04
2023-05-01T10:26:57.185Z,76.48
2023-05-01T10:27:57.155Z,75.26
2023-05-01T10:28:57.125Z,73.87
2023-05-01T10:29:57.278Z,74.60
2023-05-01T10:30:57.147Z,72.83
2023-05-01T10:31:57.201Z,74.79
2023-05-01T10:32:57.127Z,74.26
2023-05-01T10:33:57.063Z,74.29
2023-05-01T10:34:57.303Z,72.30
2023-05-01T10:35:57.027Z,71.90
2023-05-01T10:36:57.009Z,71.82
2023-05-01T10:37:57.030Z,71.69
2023-05-01T10:38:57.000Z,70.29
2023-05-01T10:39:57.081Z,69.79
2023-05-01T10:40:56.976Z,70.37
2023-05-01T10:41:56.953Z,71.91
2023-05-01T10:42:56.956Z,70.49
2023-05-01T10:43:56.980Z,70.27
2023-05-01T10:44:57.159Z,72.69
2023-05-01T10:45:56.936Z,70.62
2023-05-01T10:46:56.930Z,71.17
2023-05-01T10:47:56.952Z,71.18
2023-05-01T10:48:56.870Z,72.62
2023-05-01T10:49:56.907Z,71.79
2023-05-01T10:50:56.854Z,71.88
2023-05-01T10:51:56.868Z,73.00
2023-05-01T10:52:56.843Z,71.68
2023-05-01T10:53:56.793Z,72.11
2023-05-01T10:54:57.098Z,73.96
2023-05-01T10:55:56.807Z,76.30
2023-05-01T10:56:56.813Z,74.88
2023-05-01T10:57:56.768Z,74.50
2023-05-01T10:58:56.749Z,73.18
2023-05-01T10:59:56.729Z,72.29
2023-05-01T11:00:56.746Z,72.33
2023-05-01T11:01:56.799Z,70.91
2023-05-01T11:02:56.764Z,71.36
2023-05-01T11:03:56.672Z,70.47
2023-05-01T11:04:57.050Z,69.99
2023-05-01T11:05:56.724Z,70.77
2023-05-01T11:06:56.731Z,69.12
2023-05-01T11:07:56.638Z,69.55
2023-05-01T11:08:56.722Z,69.13
2023-05-01T11:09:56.611Z,70.42
2023-05-01T11:10:56.598Z,70.31
2023-05-01T11:11:56.630Z,69.40
2023-05-01T11:12:56.620Z,67.90
2023-05-01T11:13:56.560Z,67.80
2023-05-01T11:14:56.853Z,68.77
2023-05-01T11:15:56.574Z,67.64
2023-05-01T11:16:56.533Z,68.88
2023-05-01T11:17:56.540Z,69.32
2023-05-01T11:18:56.519Z,69.57
2023-05-01T11:19:56.507Z,69.65
2023-05-01T11:20:56.491Z,70.01
2023-05-01T11:21:56.512Z,70.23
2023-05-01T11:22:56.496Z,69.78
2023-05-01T11:23:56.526Z,70.52
2023-05-01T11:24:56.835Z,71.83
2023-05-01T11:25:57.352Z,71.12
2023-05-01T11:26:56.463Z,69.92
2023-05-01T11:27:56.392Z,70.91
2023-05-01T11:28:56.461Z,70.14
2023-05-01T11:29:56.388Z,70.98
2023-05-01T11:30:56.624Z,69.86
2023-05-01T11:31:56.461Z,71.11
2023-05-01T11:32:56.650Z,72.31
2023-05-01T11:33:56.359Z,71.07
2023-05-01T11:34:56.479Z,71.10
2023-05-01T11:35:56.309Z,70.01
2023-05-01T11:36:56.313Z,71.11
2023-05-01T11:37:56.338Z,69.89
2023-05-01T11:38:56.266Z,69.97
2023-05-01T11:39:56.254Z,70.74
2023-05-01T11:40:56.254Z,71.83
2023-05-01T11:41:56.334Z,70.57
2023-05-01T11:42:56.215Z,71.58
2023-05-01T11:43:56.230Z,70.66
2023-05-01T11:44:56.405Z,69.26
2023-05-01T11:45:56.202Z,69.88
2023-05-01T11:46:56.168Z,70.16
2023-05-01T11:47:56.201Z,70.89
2023-05-01T11:48:56.156Z,71.77
2023-05-01T11:49:56.137Z,72.54
2023-05-01T11:50:56.123Z,73.37
2023-05-01T11:51:56.168Z,71.30
2023-05-01T11:52:56.092Z,72.86
2023-05-01T11:53:56.104Z,75.29
2023-05-01T11:54:56.075Z,74.81
2023-05-01T11:55:56.115Z,73.79
2023-05-01T11:56:56.039Z,74.38
2023-05-01T11:57:56.034Z,72.66
2023-05-01T11:58:56.023Z,74.20
2023-05-01T11:59:56.023Z,74.36
2023-05-01T12:00:56.001Z,74.69
2023-05-01T12:01:55.993Z,73.41
2023-05-01T12:02:56.048Z,74.47
2023-05-01T12:03:56.035Z,75.27
2023-05-01T12:04:56.023Z,75.45
2023-05-01T12:05:55.952Z,74.31
2023-05-01T12:06:55.921Z,75.78
2023-05-01T12:07:55.907Z,77.70
2023-05-01T12:08:55.918Z,79.43
2023-05-01T12:09:55.915Z,80.04
2023-05-01T12:10:55.888Z,80.27
2023-05-01T12:11:55.881Z,81.47
2023-05-01T12:12:55.837Z,81.49
2023-05-01T12:13:55.832Z,83.62
2023-05-01T12:14:56.034Z,84.06
2023-05-01T12:15:55.820Z,83.83
2023-05-01T12:16:55.831Z,84.97
2023-05-01T12:17:55.830Z,85.72
2023-05-01T12:18:55.797Z,86.88
2023-05-01T12:19:55.752Z,87.50
2023-05-01T12:20:55.740Z,87.31
2023-05-01T12:21:55.720Z,86.81
2023-05-01T12:22:55.724Z,88.43
2023-05-01T12:23:55.722Z,88.66
2023-05-01T12:24:56.064Z,88.16
2023-05-01T12:25:55.673Z,89.28
2023-05-01T12:26:55.701Z,86.87
2023-05-01T12:27:55.663Z,87.20
2023-05-01T12:28:55.654Z,87.27
2023-05-01T12:29:55.648Z,88.18
2023-05-01T12:30:55.620Z,86.75
2023-05-01T12:31:55.643Z,87.83
2023-05-01T12:32:55.669Z,87.20
2023-05-01T12:33:55.585Z,86.70
2023-05-01T12:34:55.572Z,87.33
2023-05-01T12:35:55.567Z,88.03
2023-05-01T12:36:55.560Z,88.16
2023-05-01T12:37:55.513Z,87.23
2023-05-01T12:38:55.513Z,88.35
2023-05-01T12:39:55.505Z,88.00
2023-05-01T12:40:55.510Z,86.86
2023-05-01T12:41:55.502Z,86.19
2023-05-01T12:42:55.447Z,88.01
2023-05-01T12:43:55.445Z,87.04
2023-05-01T12:44:55.438Z,86.37
2023-05-01T12:45:55.482Z,86.08
2023-05-01T12:46:55.620Z,86.34
2023-05-01T12:47:55.479Z,86.29
2023-05-01T12:48:55.386Z,85.86
2023-05-01T12:49:55.439Z,85.24
2023-05-01T12:50:55.370Z,85.27
2023-05-01T12:51:55.372Z,85.17
2023-05-01T12:52:55.347Z,86.23
2023-05-01T12:53:55.318Z,85.80
2023-05-01T12:54:55.357Z,84.90
2023-05-01T12:55:55.321Z,85.24
2023-05-01T12:56:55.304Z,85.42
2023-05-01T12:57:55.261Z,85.13
2023-05-01T12:58:55.294Z,84.84
2023-05-01T12:59:55.261Z,84.86